createdAt,value
2022-08-05T00:02:07.577Z,25.30
2022-08-05T00:04:40.286Z,25.30
2022-08-05T00:07:27.039Z,25.20
2022-08-05T00:10:05.265Z,25.20
2022-08-05T00:12:55.637Z,25.10
2022-08-05T00:15:55.457Z,25.00
2022-08-05T00:18:27.272Z,25.00
2022-08-05T00:21:01.075Z,24.90
2022-08-05T00:23:45.863Z,24.90
2022-08-05T00:26:26.079Z,24.90
2022-08-05T00:28:58.067Z,24.80
2022-08-05T00:31:54.131Z,24.80
2022-08-05T00:34:55.795Z,24.70
2022-08-05T00:37:15.485Z,24.60
2022-08-05T00:39:58.682Z,24.60
2022-08-05T00:42:36.707Z,24.60
2022-08-05T00:45:11.629Z,24.60
2022-08-05T00:47:56.234Z,24.50
2022-08-05T00:50:29.774Z,24.50
2022-08-05T00:53:01.735Z,24.50
2022-08-05T00:55:43.659Z,24.40
2022-08-05T00:58:16.944Z,24.40
2022-08-05T01:00:51.418Z,24.50
2022-08-05T01:03:24.366Z,24.50
2022-08-05T01:06:03.858Z,24.60
2022-08-05T01:08:42.985Z,24.70
2022-08-05T01:11:21.744Z,24.70
2022-08-05T01:14:35.131Z,24.80
2022-08-05T01:17:22.870Z,24.80
2022-08-05T01:20:35.224Z,24.80
2022-08-05T01:23:57.925Z,24.80
2022-08-05T01:27:17.627Z,24.80
2022-08-05T01:30:17.684Z,24.80
2022-08-05T01:32:52.765Z,24.80
2022-08-05T01:35:53.108Z,24.80
2022-08-05T01:38:29.235Z,24.80
2022-08-05T01:41:05.705Z,24.80
2022-08-05T01:43:39.933Z,24.80
2022-08-05T01:46:16.290Z,24.80
2022-08-05T01:48:51.659Z,24.80
2022-08-05T01:51:26.774Z,24.70
2022-08-05T01:54:08.225Z,24.60
2022-08-05T01:58:10.035Z,24.60
2022-08-05T01:59:41.439Z,24.60
2022-08-05T02:02:26.213Z,24.60
2022-08-05T02:05:11.672Z,24.60
2022-08-05T02:07:56.298Z,24.60
2022-08-05T02:10:39.544Z,24.60
2022-08-05T02:13:53.439Z,24.50
2022-08-05T02:16:56.176Z,24.50
2022-08-05T02:19:47.134Z,24.50
2022-08-05T02:22:31.617Z,24.40
2022-08-05T02:25:22.852Z,24.40
2022-08-05T02:28:08.894Z,24.30
2022-08-05T02:30:56.514Z,24.30
2022-08-05T02:33:57.790Z,24.20
2022-08-05T02:36:36.491Z,24.20
2022-08-05T02:39:15.954Z,24.20
2022-08-05T02:42:00.593Z,24.10
2022-08-05T02:44:36.525Z,24.10
2022-08-05T02:47:13.005Z,24.00
2022-08-05T02:49:49.126Z,24.00
2022-08-05T02:52:29.728Z,24.00
2022-08-05T02:55:10.633Z,23.90
2022-08-05T02:58:12.050Z,23.80
2022-08-05T03:00:49.477Z,23.80
2022-08-05T03:03:24.224Z,23.80
2022-08-05T03:06:56.095Z,23.70
2022-08-05T03:08:52.432Z,23.70
2022-08-05T03:11:55.826Z,23.70
2022-08-05T03:14:18.850Z,23.60
2022-08-05T03:16:53.355Z,23.60
2022-08-05T03:19:34.610Z,23.60
2022-08-05T03:22:16.007Z,23.60
2022-08-05T03:24:52.230Z,23.60
2022-08-05T03:27:29.783Z,23.60
2022-08-05T03:30:18.099Z,23.60
2022-08-05T03:33:06.167Z,23.50
2022-08-05T03:35:41.031Z,23.50
2022-08-05T03:38:17.431Z,23.50
2022-08-05T03:41:10.800Z,23.50
2022-08-05T03:44:09.024Z,23.50
2022-08-05T03:46:35.927Z,23.40
2022-08-05T03:49:08.372Z,23.40
2022-08-05T03:52:36.907Z,23.30
2022-08-05T03:55:51.172Z,23.30
2022-08-05T03:57:53.416Z,23.20
2022-08-05T04:00:31.276Z,23.10
2022-08-05T04:03:05.986Z,23.10
2022-08-05T04:05:40.194Z,23.00
2022-08-05T04:08:30.157Z,23.00
2022-08-05T04:11:08.720Z,23.00
2022-08-05T04:13:49.799Z,22.90
2022-08-05T04:16:25.494Z,22.90
2022-08-05T04:19:11.891Z,22.90
2022-08-05T04:22:08.320Z,22.90
2022-08-05T04:24:52.496Z,22.90
2022-08-05T04:27:33.235Z,22.90
2022-08-05T04:30:15.689Z,22.90
2022-08-05T04:32:47.976Z,22.90
2022-08-05T04:35:20.222Z,22.90
2022-08-05T04:38:02.695Z,22.90
2022-08-05T04:40:44.442Z,23.00
2022-08-05T04:43:22.031Z,23.00
2022-08-05T04:45:55.761Z,23.00
2022-08-05T04:48:28.578Z,23.00
2022-08-05T04:51:03.137Z,23.10
2022-08-05T04:53:38.679Z,23.10
2022-08-05T04:56:14.379Z,23.10
2022-08-05T04:58:47.671Z,23.10
2022-08-05T05:02:06.043Z,23.10
2022-08-05T05:04:11.945Z,23.10
2022-08-05T05:06:49.139Z,23.10
2022-08-05T05:09:25.069Z,23.10
2022-08-05T05:12:01.724Z,23.10
2022-08-05T05:14:36.224Z,23.10
2022-08-05T05:17:09.662Z,23.20
2022-08-05T05:19:44.432Z,23.20
2022-08-05T05:22:23.406Z,23.30
2022-08-05T05:25:00.357Z,23.40
2022-08-05T05:27:41.423Z,23.50
2022-08-05T05:30:31.378Z,23.50
2022-08-05T05:33:15.918Z,23.60
2022-08-05T05:35:59.922Z,23.70
2022-08-05T05:38:32.046Z,23.80
2022-08-05T05:41:04.415Z,23.90
2022-08-05T05:43:57.619Z,24.00
2022-08-05T05:46:31.185Z,24.10
2022-08-05T05:49:06.494Z,24.20
2022-08-05T05:51:55.484Z,24.30
2022-08-05T05:54:51.036Z,24.40
2022-08-05T05:57:20.286Z,24.50
2022-08-05T05:59:52.878Z,24.50
2022-08-05T06:02:32.539Z,24.70
2022-08-05T06:05:16.508Z,24.80
2022-08-05T06:07:57.525Z,25.00
2022-08-05T06:10:34.509Z,25.20
2022-08-05T06:13:09.543Z,25.60
2022-08-05T06:16:29.706Z,25.80
2022-08-05T06:18:39.427Z,26.10
2022-08-05T06:21:18.604Z,26.40
2022-08-05T06:23:50.945Z,26.80
2022-08-05T06:26:24.059Z,27.10
2022-08-05T06:28:57.432Z,27.70
2022-08-05T06:31:30.600Z,28.40
2022-08-05T06:34:08.899Z,29.10
2022-08-05T06:36:57.679Z,29.70
2022-08-05T06:39:31.268Z,30.30
2022-08-05T06:42:04.024Z,30.80
2022-08-05T06:44:36.755Z,31.10
2022-08-05T06:47:30.247Z,31.50
2022-08-05T06:50:05.150Z,32.00
2022-08-05T06:52:40.460Z,32.10
2022-08-05T06:55:12.621Z,32.20
2022-08-05T06:58:03.524Z,32.30
2022-08-05T07:00:41.131Z,32.10
2022-08-05T07:03:13.314Z,31.90
2022-08-05T07:05:48.746Z,31.30
2022-08-05T07:08:28.855Z,30.70
2022-08-05T07:11:01.948Z,30.70
2022-08-05T07:13:59.302Z,31.00
2022-08-05T07:17:59.723Z,31.90
2022-08-05T07:22:36.599Z,32.30
2022-08-05T07:25:53.955Z,32.70
2022-08-05T07:28:05.847Z,33.20
2022-08-05T07:30:41.939Z,33.30
2022-08-05T07:33:16.075Z,33.50
2022-08-05T07:36:03.518Z,34.10
2022-08-05T07:38:43.491Z,34.30
2022-08-05T07:42:13.507Z,34.80
2022-08-05T07:44:18.734Z,35.20
2022-08-05T07:46:51.622Z,35.60
2022-08-05T07:49:23.643Z,35.50
2022-08-05T07:51:55.717Z,35.40
2022-08-05T07:54:30.582Z,35.60
2022-08-05T07:57:17.890Z,35.50
2022-08-05T07:59:58.839Z,35.80
2022-08-05T08:03:13.708Z,35.90
2022-08-05T08:05:23.273Z,35.40
2022-08-05T08:08:00.100Z,35.30
2022-08-05T08:10:33.235Z,35.30
2022-08-05T08:13:06.762Z,34.70
2022-08-05T08:16:50.339Z,34.00
2022-08-05T08:18:35.968Z,33.80
2022-08-05T08:21:15.999Z,34.10
2022-08-05T08:24:02.841Z,34.60
2022-08-05T08:26:37.013Z,34.70
2022-08-05T08:29:21.924Z,34.50
2022-08-05T08:32:05.680Z,34.30
2022-08-05T08:34:43.994Z,34.30
2022-08-05T08:37:18.734Z,34.30
2022-08-05T08:39:51.104Z,34.30
2022-08-05T08:42:33.779Z,34.20
2022-08-05T08:45:23.662Z,34.00
2022-08-05T08:48:22.272Z,33.60
2022-08-05T08:51:22.299Z,33.30
2022-08-05T08:53:54.200Z,33.10
2022-08-05T08:56:27.318Z,33.10
2022-08-05T08:59:01.255Z,33.20
2022-08-05T09:01:43.044Z,33.30
2022-08-05T09:04:30.335Z,33.40
2022-08-05T09:07:19.329Z,33.40
2022-08-05T09:09:51.588Z,33.40
2022-08-05T09:12:27.293Z,33.20
2022-08-05T09:15:05.753Z,33.20
2022-08-05T09:17:42.733Z,33.10
2022-08-05T09:20:36.424Z,33.10
2022-08-05T09:23:19.636Z,33.10
2022-08-05T09:26:06.673Z,33.20
2022-08-05T09:28:48.017Z,33.30
2022-08-05T09:31:43.339Z,33.40
2022-08-05T09:34:14.875Z,33.20
2022-08-05T09:36:54.968Z,33.10
2022-08-05T09:39:45.300Z,33.10
2022-08-05T09:42:24.237Z,32.90
2022-08-05T09:46:04.611Z,32.80
2022-08-05T09:48:37.032Z,32.80
2022-08-05T09:51:14.807Z,32.80
2022-08-05T09:53:54.575Z,32.80
2022-08-05T09:56:52.342Z,32.70
2022-08-05T09:59:27.732Z,32.70
2022-08-05T10:02:01.166Z,32.70
2022-08-05T10:04:39.697Z,32.90
2022-08-05T10:07:20.467Z,32.90
2022-08-05T10:10:32.567Z,33.00
2022-08-05T10:13:10.197Z,33.10
2022-08-05T10:15:43.892Z,33.10
2022-08-05T10:18:20.305Z,33.10
2022-08-05T10:20:56.820Z,33.30
2022-08-05T10:23:59.672Z,33.40
2022-08-05T10:26:32.700Z,33.40
2022-08-05T10:29:08.131Z,33.40
2022-08-05T10:32:51.964Z,33.50
2022-08-05T10:34:35.075Z,33.50
2022-08-05T10:37:13.665Z,33.50
2022-08-05T10:40:03.729Z,33.50
2022-08-05T10:42:53.171Z,33.40
2022-08-05T10:45:41.871Z,33.30
2022-08-05T10:48:53.011Z,33.30
2022-08-05T10:51:53.039Z,33.30
2022-08-05T10:55:04.720Z,33.30
2022-08-05T10:57:41.342Z,33.30
2022-08-05T11:00:23.033Z,33.40
2022-08-05T11:03:24.811Z,33.40
2022-08-05T11:06:15.407Z,33.50
2022-08-05T11:09:39.349Z,33.50
2022-08-05T11:12:45.206Z,33.50
2022-08-05T11:16:01.278Z,33.50
2022-08-05T11:18:47.101Z,33.50
2022-08-05T11:21:40.919Z,33.60
2022-08-05T11:24:30.120Z,33.70
2022-08-05T11:27:50.908Z,33.80
2022-08-05T11:30:24.138Z,33.90
2022-08-05T11:33:44.045Z,33.90
2022-08-05T11:36:47.252Z,34.10
2022-08-05T11:40:00.688Z,34.20
2022-08-05T11:42:40.718Z,34.30
2022-08-05T11:46:15.428Z,34.50
2022-08-05T11:48:25.844Z,34.60
2022-08-05T11:50:58.422Z,34.70
2022-08-05T11:53:40.966Z,34.70
2022-08-05T11:56:15.236Z,34.80
2022-08-05T11:58:52.898Z,34.90
2022-08-05T12:01:25.329Z,35.00
2022-08-05T12:03:57.514Z,35.10
2022-08-05T12:06:35.897Z,35.20
2022-08-05T12:09:08.066Z,35.40
2022-08-05T12:11:56.580Z,35.50
2022-08-05T12:14:39.463Z,35.50
2022-08-05T12:18:02.738Z,35.40
2022-08-05T12:20:16.627Z,35.40
2022-08-05T12:23:11.974Z,35.40
2022-08-05T12:25:56.609Z,35.30
2022-08-05T12:28:37.698Z,35.10
2022-08-05T12:31:10.649Z,35.00
2022-08-05T12:33:57.287Z,34.90
2022-08-05T12:36:32.941Z,34.70
2022-08-05T12:39:06.912Z,34.40
2022-08-05T12:41:43.601Z,34.30
2022-08-05T12:44:28.547Z,34.10
2022-08-05T12:47:12.572Z,34.00
2022-08-05T12:50:03.753Z,33.90
2022-08-05T12:53:00.220Z,33.80
2022-08-05T12:55:32.911Z,33.80
2022-08-05T12:58:48.355Z,33.60
2022-08-05T13:02:00.626Z,33.60
2022-08-05T13:03:55.374Z,33.60
2022-08-05T13:06:29.924Z,33.50
2022-08-05T13:09:13.646Z,33.50
2022-08-05T13:12:01.952Z,33.40
2022-08-05T13:14:42.266Z,33.30
2022-08-05T13:17:20.459Z,33.10
2022-08-05T13:20:20.318Z,33.10
2022-08-05T13:23:07.156Z,33.20
2022-08-05T13:25:52.790Z,33.50
2022-08-05T13:28:32.764Z,33.80
2022-08-05T13:31:11.208Z,33.80
2022-08-05T13:34:21.465Z,33.90
2022-08-05T13:36:39.004Z,34.10
2022-08-05T13:40:14.514Z,34.40
2022-08-05T13:42:06.057Z,34.70
2022-08-05T13:44:43.274Z,34.90
2022-08-05T13:47:35.029Z,35.20
2022-08-05T13:50:11.426Z,35.40
2022-08-05T13:52:46.900Z,35.30
2022-08-05T13:55:41.795Z,35.10
2022-08-05T13:58:14.281Z,34.70
2022-08-05T14:01:03.429Z,34.50
2022-08-05T14:03:36.326Z,34.30
2022-08-05T14:06:25.637Z,34.10
2022-08-05T14:08:59.524Z,33.90
2022-08-05T14:11:32.369Z,33.80
2022-08-05T14:14:26.068Z,33.60
2022-08-05T14:17:05.395Z,33.70
2022-08-05T14:19:55.943Z,34.00
2022-08-05T14:22:34.520Z,34.20
2022-08-05T14:25:21.698Z,34.50
2022-08-05T14:27:56.249Z,34.90
2022-08-05T14:30:30.571Z,35.00
2022-08-05T14:33:04.612Z,34.70
2022-08-05T14:35:50.556Z,34.30
2022-08-05T14:38:31.687Z,34.00
2022-08-05T14:41:07.632Z,33.70
2022-08-05T14:44:00.122Z,33.60
2022-08-05T14:46:32.569Z,33.70
2022-08-05T14:49:08.396Z,33.60
2022-08-05T14:51:42.943Z,33.70
2022-08-05T14:54:28.386Z,33.60
2022-08-05T14:57:05.253Z,33.40
2022-08-05T14:59:41.873Z,33.50
2022-08-05T15:02:15.125Z,33.60
2022-08-05T15:04:56.282Z,33.50
2022-08-05T15:08:12.076Z,33.50
2022-08-05T15:10:20.726Z,33.40
2022-08-05T15:13:03.636Z,33.50
2022-08-05T15:15:54.910Z,33.60
2022-08-05T15:18:28.466Z,33.70
2022-08-05T15:21:07.395Z,33.60
2022-08-05T15:23:40.190Z,33.70
2022-08-05T15:26:12.397Z,33.80
2022-08-05T15:28:46.325Z,33.90
2022-08-05T15:31:24.065Z,33.90
2022-08-05T15:34:31.715Z,33.90
2022-08-05T15:37:00.518Z,34.00
2022-08-05T15:41:01.807Z,33.80
2022-08-05T15:42:56.218Z,33.70
2022-08-05T15:45:38.018Z,33.60
2022-08-05T15:48:15.135Z,33.60
2022-08-05T15:50:47.930Z,33.20
2022-08-05T15:53:20.074Z,33.10
2022-08-05T15:56:02.090Z,32.80
2022-08-05T15:58:46.380Z,32.50
2022-08-05T16:01:19.439Z,32.20
2022-08-05T16:03:52.798Z,31.90
2022-08-05T16:06:24.871Z,31.80
2022-08-05T16:08:57.019Z,31.50
2022-08-05T16:11:42.728Z,31.30
2022-08-05T16:14:17.449Z,31.30
2022-08-05T16:16:51.097Z,31.20
2022-08-05T16:20:03.131Z,31.00
2022-08-05T16:22:15.641Z,30.80
2022-08-05T16:24:51.575Z,30.70
2022-08-05T16:27:32.104Z,30.60
2022-08-05T16:30:25.652Z,30.60
2022-08-05T16:32:59.583Z,30.40
2022-08-05T16:35:34.654Z,30.20
2022-08-05T16:38:18.662Z,30.10
2022-08-05T16:41:01.396Z,30.00
2022-08-05T16:43:35.387Z,29.80
2022-08-05T16:46:12.952Z,29.70
2022-08-05T16:48:57.179Z,29.60
2022-08-05T16:51:31.051Z,29.40
2022-08-05T16:54:25.719Z,29.30
2022-08-05T16:57:01.467Z,29.10
2022-08-05T16:59:34.480Z,28.80
2022-08-05T17:02:27.818Z,28.60
2022-08-05T17:05:00.550Z,28.60
2022-08-05T17:07:39.230Z,28.60
2022-08-05T17:10:15.908Z,28.50
2022-08-05T17:12:51.502Z,28.40
2022-08-05T17:15:29.492Z,28.40
2022-08-05T17:18:18.998Z,28.40
2022-08-05T17:20:51.212Z,28.30
2022-08-05T17:24:04.328Z,28.30
2022-08-05T17:26:15.483Z,28.30
2022-08-05T17:28:47.550Z,28.30
2022-08-05T17:31:24.512Z,28.20
2022-08-05T17:34:17.749Z,28.10
2022-08-05T17:36:50.138Z,28.10
2022-08-05T17:39:24.438Z,27.90
2022-08-05T17:42:28.495Z,27.80
2022-08-05T17:45:09.823Z,27.70
2022-08-05T17:47:55.696Z,27.60
2022-08-05T17:50:30.358Z,27.50
2022-08-05T17:53:05.425Z,27.30
2022-08-05T17:55:40.003Z,27.20
2022-08-05T17:58:14.593Z,27.10
2022-08-05T18:00:50.556Z,27.00
2022-08-05T18:03:59.596Z,26.90
2022-08-05T18:06:15.736Z,26.80
2022-08-05T18:08:52.369Z,26.60
2022-08-05T18:11:29.695Z,26.50
2022-08-05T18:14:20.570Z,26.50
2022-08-05T18:16:52.953Z,26.40
2022-08-05T18:19:26.002Z,26.40
2022-08-05T18:22:07.383Z,26.30
2022-08-05T18:24:41.990Z,26.20
2022-08-05T18:27:18.741Z,26.10
2022-08-05T18:29:54.523Z,26.00
2022-08-05T18:32:28.084Z,25.90
2022-08-05T18:35:01.768Z,25.80
2022-08-05T18:37:40.363Z,25.70
2022-08-05T18:41:50.840Z,25.60
2022-08-05T18:43:09.021Z,25.60
2022-08-05T18:45:48.913Z,25.50
2022-08-05T18:48:31.485Z,25.50
2022-08-05T18:52:02.789Z,25.40
2022-08-05T18:54:36.141Z,25.30
2022-08-05T18:57:15.531Z,25.20
2022-08-05T19:00:01.844Z,25.20
2022-08-05T19:02:38.205Z,25.10
2022-08-05T19:06:06.117Z,25.00
2022-08-05T19:08:13.533Z,24.90
2022-08-05T19:10:47.491Z,24.90
2022-08-05T19:13:20.492Z,24.80
2022-08-05T19:15:59.983Z,24.80
2022-08-05T19:18:36.812Z,24.70
2022-08-05T19:21:12.292Z,24.60
2022-08-05T19:24:06.101Z,24.60
2022-08-05T19:26:54.517Z,24.50
2022-08-05T19:29:36.485Z,24.40
2022-08-05T19:32:11.733Z,24.30
2022-08-05T19:34:55.332Z,24.30
2022-08-05T19:37:34.902Z,24.20
2022-08-05T19:40:24.256Z,24.10
2022-08-05T19:43:05.580Z,24.10
2022-08-05T19:45:39.884Z,24.00
2022-08-05T19:48:27.134Z,23.90
2022-08-05T19:50:59.273Z,23.90
2022-08-05T19:54:04.142Z,23.80
2022-08-05T19:56:32.679Z,23.70
2022-08-05T19:59:53.747Z,23.50
2022-08-05T20:02:03.394Z,23.50
2022-08-05T20:04:35.947Z,23.30
2022-08-05T20:07:13.030Z,23.20
2022-08-05T20:09:53.595Z,23.10
2022-08-05T20:12:26.502Z,23.00
2022-08-05T20:14:58.944Z,22.90
2022-08-05T20:17:32.463Z,22.80
2022-08-05T20:20:10.976Z,22.80
2022-08-05T20:22:44.150Z,22.70
2022-08-05T20:25:19.191Z,22.50
2022-08-05T20:27:55.426Z,22.50
2022-08-05T20:30:30.293Z,22.30
2022-08-05T20:33:03.033Z,22.20
2022-08-05T20:35:40.273Z,22.10
2022-08-05T20:38:22.703Z,22.10
2022-08-05T20:41:00.441Z,21.90
2022-08-05T20:43:59.988Z,21.90
2022-08-05T20:46:29.563Z,21.80
2022-08-05T20:49:02.691Z,21.70
2022-08-05T20:51:38.498Z,21.60
2022-08-05T20:54:13.897Z,21.50
2022-08-05T20:56:46.583Z,21.50
2022-08-05T20:59:26.708Z,21.40
2022-08-05T21:02:13.546Z,21.30
2022-08-05T21:04:50.272Z,21.30
2022-08-05T21:07:23.921Z,21.30
2022-08-05T21:09:57.856Z,21.30
2022-08-05T21:12:30.235Z,21.30
2022-08-05T21:15:02.482Z,21.20
2022-08-05T21:17:34.760Z,21.30
2022-08-05T21:20:10.191Z,21.30
2022-08-05T21:22:43.096Z,21.30
2022-08-05T21:25:15.316Z,21.30
2022-08-05T21:27:47.794Z,21.30
2022-08-05T21:30:25.739Z,21.30
2022-08-05T21:32:58.208Z,21.30
2022-08-05T21:35:55.827Z,21.30
2022-08-05T21:38:23.315Z,21.40
2022-08-05T21:40:57.220Z,21.40
2022-08-05T21:43:41.587Z,21.40
2022-08-05T21:46:14.081Z,21.40
2022-08-05T21:48:46.525Z,21.40
2022-08-05T21:52:15.485Z,21.50
2022-08-05T21:54:11.859Z,21.50
2022-08-05T21:56:51.386Z,21.50
2022-08-05T21:59:30.476Z,21.50
2022-08-05T22:02:14.678Z,21.50
2022-08-05T22:04:46.905Z,21.40
2022-08-05T22:07:39.408Z,21.30
2022-08-05T22:10:15.757Z,21.20
2022-08-05T22:12:50.581Z,21.20
2022-08-05T22:16:04.631Z,21.00
2022-08-05T22:18:15.587Z,21.00
2022-08-05T22:20:52.428Z,21.00
2022-08-05T22:24:00.831Z,20.90
2022-08-05T22:27:16.611Z,20.90
2022-08-05T22:30:17.155Z,20.90
2022-08-05T22:32:49.287Z,20.80
2022-08-05T22:35:21.399Z,20.80
2022-08-05T22:37:59.279Z,20.80
2022-08-05T22:40:32.070Z,20.80
2022-08-05T22:43:05.332Z,20.70
2022-08-05T22:45:37.520Z,20.70
2022-08-05T22:48:10.855Z,20.70
2022-08-05T22:50:46.143Z,20.60
2022-08-05T22:53:35.816Z,20.60
2022-08-05T22:56:09.823Z,20.60
2022-08-05T22:58:43.772Z,20.60
2022-08-05T23:01:16.573Z,20.50
2022-08-05T23:03:58.021Z,20.50
2022-08-05T23:06:31.745Z,20.50
2022-08-05T23:09:26.770Z,20.50
2022-08-05T23:11:56.665Z,20.50
2022-08-05T23:14:32.363Z,20.40
2022-08-05T23:17:24.264Z,20.50
2022-08-05T23:20:17.550Z,20.50
2022-08-05T23:22:50.115Z,20.40
2022-08-05T23:25:52.052Z,20.50
2022-08-05T23:28:20.644Z,20.50
2022-08-05T23:30:55.509Z,20.40
2022-08-05T23:34:04.396Z,20.40
2022-08-05T23:36:21.453Z,20.40
2022-08-05T23:39:00.861Z,20.50
2022-08-05T23:41:34.189Z,20.40
2022-08-05T23:44:09.793Z,20.40
2022-08-05T23:46:41.950Z,20.50
2022-08-05T23:49:15.962Z,20.50
2022-08-05T23:52:12.906Z,20.50
2022-08-05T23:55:09.058Z,20.50
2022-08-05T23:57:41.289Z,20.40
